Anthem, Arizona
Current Conditions -  °F | °C
As of 2:53 PM on Friday 31 Oct 2014 (Local Time) from KDVT Reporting Station
Clear Clear  
Wind Chill: 90°   Ceiling: Unl
Heat Index: 90°   Visibility: 10mi
Dew Point: 41°   Wind: 9mph
Humidity: 18%   Direction: 150°SSE
Pressure: 29.81"   Gusts: 16mph
Location:  33.8348°N, 112.071°W
Report Text: KDVT 312153Z 15008G14KT 10SM CLR 32/05 A2981 RMK AO2 SLP071 T03220050
Loading
Personal Weather Stations






























Interactive Weather Map
Tropical Storm Tracking
New forecast layout! Learn more

10-Day Weather Forecast

Advertisements
Track Severe Weather on mobile